createdAt,value
2023-05-10T00:00:39.416Z,1.08
2023-05-10T00:03:07.980Z,4.72
2023-05-10T00:05:37.680Z,1.45
2023-05-10T00:08:06.389Z,3.00
2023-05-10T00:10:34.898Z,2.92
2023-05-10T00:13:03.717Z,2.90
2023-05-10T00:15:32.485Z,3.47
2023-05-10T00:18:01.393Z,1.35
2023-05-10T00:20:29.641Z,1.55
2023-05-10T00:22:59.206Z,2.58
2023-05-10T00:25:27.524Z,2.58
2023-05-10T00:27:56.292Z,1.88
2023-05-10T00:30:24.974Z,1.73
2023-05-10T00:32:53.543Z,3.50
2023-05-10T00:35:22.559Z,1.70
2023-05-10T00:37:51.094Z,2.72
2023-05-10T00:40:20.841Z,1.88
2023-05-10T00:42:54.389Z,2.72
2023-05-10T00:45:23.131Z,6.53
2023-05-10T00:47:53.154Z,3.05
2023-05-10T00:50:22.134Z,2.13
2023-05-10T00:52:51.274Z,2.90
2023-05-10T00:55:21.035Z,2.85
2023-05-10T00:57:49.914Z,2.45
2023-05-10T01:00:19.668Z,2.75
2023-05-10T01:02:48.383Z,2.67
2023-05-10T01:05:17.600Z,3.45
2023-05-10T01:07:46.182Z,4.72
2023-05-10T01:10:15.220Z,2.10
2023-05-10T01:12:48.459Z,7.60
2023-05-10T01:15:18.262Z,2.33
2023-05-10T01:17:48.816Z,2.45
2023-05-10T01:20:17.860Z,2.92
2023-05-10T01:23:32.377Z,3.60
2023-05-10T01:26:21.629Z,2.25
2023-05-10T01:29:41.166Z,3.08
2023-05-10T01:32:34.360Z,3.08
2023-05-10T01:35:08.329Z,3.83
2023-05-10T01:37:47.332Z,2.60
2023-05-10T01:40:25.145Z,2.58
2023-05-10T01:43:01.902Z,2.92
2023-05-10T01:45:37.908Z,3.28
2023-05-10T01:48:11.006Z,4.55
2023-05-10T01:50:45.724Z,2.75
2023-05-10T01:53:15.477Z,5.40
2023-05-10T01:55:53.082Z,9.60
2023-05-10T01:58:27.039Z,3.85
2023-05-10T02:00:57.603Z,2.50
2023-05-10T02:03:30.117Z,4.00
2023-05-10T02:06:01.305Z,2.47
2023-05-10T02:08:30.192Z,2.58
2023-05-10T02:11:00.525Z,3.80
2023-05-10T02:13:31.758Z,2.60
2023-05-10T02:16:01.621Z,3.60
2023-05-10T02:18:32.978Z,3.05
2023-05-10T02:21:03.294Z,4.40
2023-05-10T02:23:32.501Z,2.72
2023-05-10T02:26:03.269Z,2.88
2023-05-10T02:28:33.010Z,1.90
2023-05-10T02:31:01.614Z,4.07
2023-05-10T02:33:33.736Z,2.65
2023-05-10T02:36:03.620Z,10.20
2023-05-10T02:38:34.559Z,3.45
2023-05-10T02:41:06.479Z,2.13
2023-05-10T02:43:35.875Z,2.15
2023-05-10T02:46:04.764Z,5.40
2023-05-10T02:48:34.503Z,2.60
2023-05-10T02:51:09.233Z,2.50
2023-05-10T02:56:16.614Z,2.88
2023-05-10T02:58:45.192Z,2.67
2023-05-10T03:01:13.861Z,3.50
2023-05-10T03:03:43.807Z,4.65
2023-05-10T03:06:12.550Z,5.90
2023-05-10T03:08:41.405Z,8.32
2023-05-10T03:11:34.068Z,4.50
2023-05-10T03:14:22.614Z,7.03
2023-05-10T03:17:06.082Z,10.77
2023-05-10T03:19:50.762Z,6.20
2023-05-10T03:22:26.731Z,3.83
2023-05-10T03:24:58.710Z,4.38
2023-05-10T03:27:31.522Z,4.18
2023-05-10T03:30:01.758Z,4.35
2023-05-10T03:32:32.971Z,3.53
2023-05-10T03:35:03.340Z,8.35
2023-05-10T03:37:32.154Z,4.65
2023-05-10T03:40:00.724Z,7.57
2023-05-10T03:42:29.214Z,5.15
2023-05-10T03:44:57.562Z,6.43
2023-05-10T03:47:26.840Z,8.13
2023-05-10T03:49:55.382Z,3.67
2023-05-10T03:52:26.271Z,4.07
2023-05-10T03:54:54.822Z,5.28
2023-05-10T03:57:23.493Z,5.85
2023-05-10T03:59:52.083Z,4.85
2023-05-10T04:02:20.305Z,4.25
2023-05-10T04:04:49.166Z,3.90
2023-05-10T04:07:17.743Z,5.30
2023-05-10T04:09:47.333Z,3.33
2023-05-10T04:12:15.595Z,4.47
2023-05-10T04:14:44.111Z,4.55
2023-05-10T04:17:12.776Z,7.65
2023-05-10T04:19:41.361Z,4.05
2023-05-10T04:22:10.085Z,4.82
2023-05-10T04:24:38.631Z,4.70
2023-05-10T04:27:08.209Z,7.93
2023-05-10T04:29:36.687Z,7.63
2023-05-10T04:32:05.536Z,7.38
2023-05-10T04:34:35.070Z,8.45
2023-05-10T04:37:03.577Z,6.05
2023-05-10T04:39:32.080Z,10.82
2023-05-10T04:42:00.618Z,6.07
2023-05-10T04:44:30.440Z,5.80
2023-05-10T04:46:59.000Z,11.02
2023-05-10T04:49:27.554Z,8.85
2023-05-10T04:51:56.090Z,8.30
2023-05-10T04:54:24.336Z,9.55
2023-05-10T04:56:52.964Z,8.82
2023-05-10T04:59:22.100Z,13.35
2023-05-10T05:01:51.685Z,11.27
2023-05-10T05:04:20.230Z,13.40
2023-05-10T05:06:48.749Z,10.77
2023-05-10T05:09:17.327Z,11.73
2023-05-10T05:11:45.863Z,11.55
2023-05-10T05:14:14.383Z,10.85
2023-05-10T05:16:42.943Z,19.15
2023-05-10T05:19:12.527Z,15.55
2023-05-10T05:21:41.759Z,10.80
2023-05-10T05:24:11.134Z,12.52
2023-05-10T05:26:39.816Z,25.85
2023-05-10T05:29:09.103Z,19.00
2023-05-10T05:31:37.807Z,11.35
2023-05-10T05:34:06.330Z,15.93
2023-05-10T05:36:39.226Z,14.55
2023-05-10T05:39:07.890Z,16.08
2023-05-10T05:41:36.382Z,14.73
2023-05-10T05:44:04.977Z,16.25
2023-05-10T05:46:33.515Z,12.23
2023-05-10T05:49:02.287Z,14.40
2023-05-10T05:51:30.869Z,9.88
2023-05-10T05:54:00.653Z,14.98
2023-05-10T05:56:29.210Z,13.63
2023-05-10T05:58:57.553Z,12.60
2023-05-10T06:01:25.730Z,18.50
2023-05-10T06:03:54.323Z,12.82
2023-05-10T06:06:22.925Z,15.75
2023-05-10T06:08:51.496Z,15.23
2023-05-10T06:11:21.416Z,22.00
2023-05-10T06:13:49.977Z,12.60
2023-05-10T06:16:18.708Z,16.67
2023-05-10T06:18:46.932Z,16.65
2023-05-10T06:21:15.810Z,11.55
2023-05-10T06:23:44.781Z,10.55
2023-05-10T06:26:14.693Z,17.10
2023-05-10T06:28:44.383Z,14.25
2023-05-10T06:31:13.384Z,12.52
2023-05-10T06:33:42.184Z,10.07
2023-05-10T06:36:10.778Z,14.38
2023-05-10T06:38:39.362Z,13.13
2023-05-10T06:41:08.208Z,17.48
2023-05-10T06:43:37.955Z,10.25
2023-05-10T06:46:08.674Z,15.40
2023-05-10T06:48:37.320Z,9.50
2023-05-10T06:51:05.976Z,8.63
2023-05-10T06:53:34.594Z,6.25
2023-05-10T06:56:04.450Z,7.05
2023-05-10T06:58:33.879Z,6.28
2023-05-10T07:01:07.463Z,6.30
2023-05-10T07:03:36.223Z,7.93
2023-05-10T07:06:05.429Z,6.63
2023-05-10T07:08:34.275Z,6.45
2023-05-10T07:11:04.555Z,6.18
2023-05-10T07:13:33.427Z,5.03
2023-05-10T07:16:02.968Z,14.40
2023-05-10T07:18:33.315Z,7.80
2023-05-10T07:21:01.864Z,5.57
2023-05-10T07:23:30.529Z,13.98
2023-05-10T07:26:00.352Z,5.28
2023-05-10T07:28:28.925Z,4.82
2023-05-10T07:30:57.622Z,4.18
2023-05-10T07:33:26.178Z,6.50
2023-05-10T07:35:55.905Z,5.57
2023-05-10T07:38:24.455Z,6.28
2023-05-10T07:40:52.951Z,12.40
2023-05-10T07:43:21.135Z,6.22
2023-05-10T07:45:49.665Z,8.40
2023-05-10T07:48:18.176Z,6.45
2023-05-10T07:50:46.668Z,5.63
2023-05-10T07:53:16.236Z,6.22
2023-05-10T07:55:44.750Z,4.07
2023-05-10T07:58:13.246Z,1.38
2023-05-10T08:00:42.193Z,1.77
2023-05-10T08:03:10.951Z,2.05
2023-05-10T08:05:39.680Z,1.00
2023-05-10T08:08:07.915Z,2.15
2023-05-10T08:10:37.514Z,1.27
2023-05-10T08:13:05.720Z,3.40
2023-05-10T08:15:33.979Z,2.20
2023-05-10T08:18:02.267Z,0.80
2023-05-10T08:20:30.831Z,1.48
2023-05-10T08:22:59.439Z,2.88
2023-05-10T08:25:28.029Z,2.78
2023-05-10T08:27:57.593Z,0.70
2023-05-10T08:30:26.125Z,0.50
2023-05-10T08:32:54.634Z,0.35
2023-05-10T08:35:23.154Z,0.45
2023-05-10T08:37:51.371Z,0.95
2023-05-10T08:40:21.851Z,4.72
2023-05-10T08:43:01.277Z,1.23
2023-05-10T08:45:33.913Z,1.45
2023-05-10T08:48:04.305Z,0.57
2023-05-10T08:50:33.305Z,2.50
2023-05-10T08:53:05.884Z,0.68
2023-05-10T08:55:34.976Z,2.80
2023-05-10T08:58:05.405Z,0.52
2023-05-10T09:00:34.039Z,0.70
2023-05-10T09:03:03.648Z,1.85
2023-05-10T09:05:32.382Z,0.40
2023-05-10T09:08:01.480Z,0.30
2023-05-10T09:10:31.782Z,0.60
2023-05-10T09:13:00.505Z,1.85
2023-05-10T09:15:30.056Z,1.55
2023-05-10T09:18:00.368Z,4.60
2023-05-10T09:20:29.018Z,0.40
2023-05-10T09:22:57.614Z,2.83
2023-05-10T09:25:26.178Z,1.63
2023-05-10T09:27:55.111Z,6.60
2023-05-10T09:30:29.346Z,7.95
2023-05-10T09:32:59.191Z,0.60
2023-05-10T09:35:30.441Z,2.28
2023-05-10T09:38:03.149Z,0.80
2023-05-10T09:40:32.020Z,4.53
2023-05-10T09:43:02.539Z,0.60
2023-05-10T09:45:36.219Z,0.98
2023-05-10T09:48:07.537Z,6.45
2023-05-10T09:50:36.348Z,0.73
2023-05-10T09:53:05.730Z,0.80
2023-05-10T09:55:45.176Z,3.30
2023-05-10T09:58:13.981Z,0.50
2023-05-10T10:00:45.876Z,0.70
2023-05-10T10:03:19.004Z,1.38
2023-05-10T10:05:49.808Z,1.45
2023-05-10T10:08:19.995Z,0.70
2023-05-10T10:10:50.494Z,1.67
2023-05-10T10:13:19.090Z,1.20
2023-05-10T10:15:52.102Z,1.05
2023-05-10T10:18:24.774Z,1.85
2023-05-10T10:20:54.453Z,2.10
2023-05-10T10:23:22.962Z,1.90
2023-05-10T10:25:52.863Z,3.75
2023-05-10T10:28:36.938Z,5.88
2023-05-10T10:31:23.227Z,0.40
2023-05-10T10:34:03.908Z,0.55
2023-05-10T10:36:34.783Z,1.08
2023-05-10T10:39:05.087Z,0.47
2023-05-10T10:41:35.921Z,1.70
2023-05-10T10:44:37.555Z,0.60
2023-05-10T10:47:29.198Z,0.55
2023-05-10T10:50:09.779Z,6.22
2023-05-10T10:52:39.988Z,0.20
2023-05-10T10:55:10.493Z,0.20
2023-05-10T10:57:51.916Z,0.40
2023-05-10T11:00:32.350Z,0.30
2023-05-10T11:03:07.380Z,0.20
2023-05-10T11:05:42.628Z,1.48
2023-05-10T11:08:20.060Z,0.50
2023-05-10T11:11:04.866Z,1.23
2023-05-10T11:13:35.430Z,1.73
2023-05-10T11:16:19.534Z,0.30
2023-05-10T11:19:03.214Z,0.77
2023-05-10T11:21:32.525Z,2.85
2023-05-10T11:24:06.521Z,0.88
2023-05-10T11:26:37.479Z,0.60
2023-05-10T11:29:06.315Z,2.83
2023-05-10T11:31:34.987Z,1.40
2023-05-10T11:34:04.728Z,0.90
2023-05-10T11:36:37.319Z,1.00
2023-05-10T11:39:06.933Z,1.20
2023-05-10T11:41:35.737Z,19.67
2023-05-10T11:44:04.430Z,0.60
2023-05-10T11:46:33.213Z,2.40
2023-05-10T11:49:05.430Z,0.45
2023-05-10T11:51:37.217Z,1.95
2023-05-10T11:54:10.489Z,0.50
2023-05-10T11:56:39.801Z,2.55
2023-05-10T11:59:08.884Z,4.53
2023-05-10T12:01:37.996Z,0.52
2023-05-10T12:04:07.856Z,3.70
2023-05-10T12:06:43.039Z,1.95
2023-05-10T12:09:11.837Z,3.00
2023-05-10T12:11:44.234Z,4.47
2023-05-10T12:14:13.550Z,1.95
2023-05-10T12:16:42.413Z,5.45
2023-05-10T12:19:12.261Z,0.30
2023-05-10T12:21:42.432Z,4.78
2023-05-10T12:24:11.488Z,1.00
2023-05-10T12:26:39.738Z,3.53
2023-05-10T12:29:18.532Z,1.10
2023-05-10T12:31:59.832Z,2.03
2023-05-10T12:34:34.244Z,1.42
2023-05-10T12:37:03.910Z,4.72
2023-05-10T12:39:42.434Z,4.75
2023-05-10T12:42:11.769Z,3.47
2023-05-10T12:44:41.725Z,5.45
2023-05-10T12:47:10.307Z,0.73
2023-05-10T12:49:40.138Z,5.88
2023-05-10T12:52:08.717Z,1.23
2023-05-10T12:54:37.263Z,5.32
2023-05-10T12:57:05.811Z,4.55
2023-05-10T12:59:35.872Z,4.00
2023-05-10T13:02:05.378Z,4.55
2023-05-10T13:04:33.615Z,4.90
2023-05-10T13:07:04.242Z,0.85
2023-05-10T13:09:32.822Z,2.00
2023-05-10T13:12:01.420Z,1.95
2023-05-10T13:14:30.026Z,4.90
2023-05-10T13:16:58.670Z,2.00
2023-05-10T13:19:27.816Z,0.82
2023-05-10T13:21:56.446Z,4.18
2023-05-10T13:24:26.238Z,1.85
2023-05-10T13:26:54.716Z,0.95
2023-05-10T13:29:23.526Z,3.13
2023-05-10T13:31:52.274Z,0.70
2023-05-10T13:34:22.368Z,3.30
2023-05-10T13:36:51.125Z,1.98
2023-05-10T13:39:21.635Z,3.13
2023-05-10T13:41:51.809Z,1.80
2023-05-10T13:44:22.322Z,0.52
2023-05-10T13:46:50.874Z,0.82
2023-05-10T13:49:19.476Z,1.67
2023-05-10T13:51:48.147Z,8.15
2023-05-10T13:54:18.350Z,4.78
2023-05-10T13:56:48.257Z,1.55
2023-05-10T13:59:17.841Z,3.53
2023-05-10T14:01:46.439Z,1.17
2023-05-10T14:04:15.007Z,1.23
2023-05-10T14:06:43.212Z,8.10
2023-05-10T14:09:11.762Z,0.93
2023-05-10T14:11:42.702Z,1.98
2023-05-10T14:14:11.298Z,2.85
2023-05-10T14:16:43.456Z,0.95
2023-05-10T14:19:12.313Z,0.45
2023-05-10T14:21:40.653Z,5.35
2023-05-10T14:24:09.294Z,1.17
2023-05-10T14:26:37.816Z,1.52
2023-05-10T14:29:06.062Z,2.65
2023-05-10T14:31:34.839Z,4.70
2023-05-10T14:34:04.509Z,0.50
2023-05-10T14:36:33.081Z,1.73
2023-05-10T14:39:01.279Z,0.88
2023-05-10T14:41:31.172Z,3.13
2023-05-10T14:43:59.790Z,2.63
2023-05-10T14:46:28.580Z,0.65
2023-05-10T14:48:57.139Z,15.98
2023-05-10T14:51:26.943Z,7.80
2023-05-10T14:53:55.472Z,3.63
2023-05-10T14:56:23.969Z,2.63
2023-05-10T14:58:52.663Z,10.27
2023-05-10T15:01:21.753Z,1.42
2023-05-10T15:03:50.762Z,2.58
2023-05-10T15:06:24.818Z,0.68
2023-05-10T15:08:54.431Z,0.75
2023-05-10T15:11:22.683Z,3.13
2023-05-10T15:13:50.935Z,8.20
2023-05-10T15:16:19.512Z,1.10
2023-05-10T15:18:48.011Z,2.53
2023-05-10T15:21:16.749Z,0.90
2023-05-10T15:23:45.176Z,0.68
2023-05-10T15:26:14.912Z,0.73
2023-05-10T15:28:43.334Z,1.75
2023-05-10T15:31:12.213Z,7.25
2023-05-10T15:33:40.793Z,1.65
2023-05-10T15:36:09.493Z,3.05
2023-05-10T15:38:38.349Z,2.88
2023-05-10T15:41:06.962Z,1.02
2023-05-10T15:43:36.544Z,1.02
2023-05-10T15:46:06.885Z,0.30
2023-05-10T15:48:35.426Z,2.17
2023-05-10T15:51:03.941Z,3.10
2023-05-10T15:53:32.424Z,0.30
2023-05-10T15:56:00.923Z,1.50
2023-05-10T15:58:29.412Z,2.10
2023-05-10T16:00:59.319Z,0.70
2023-05-10T16:03:27.898Z,1.35
2023-05-10T16:05:56.710Z,0.70
2023-05-10T16:08:25.660Z,0.75
2023-05-10T16:10:54.444Z,0.55
2023-05-10T16:13:22.758Z,0.57
2023-05-10T16:15:51.282Z,2.60
2023-05-10T16:18:20.966Z,0.30
2023-05-10T16:20:49.610Z,0.52
2023-05-10T16:23:18.209Z,0.10
2023-05-10T16:25:46.774Z,0.75
2023-05-10T16:28:15.289Z,0.85
2023-05-10T16:30:43.543Z,0.63
2023-05-10T16:33:12.214Z,0.28
2023-05-10T16:35:42.004Z,1.30
2023-05-10T16:38:11.146Z,1.45
2023-05-10T16:40:39.806Z,1.52
2023-05-10T16:43:08.603Z,0.20
2023-05-10T16:45:37.168Z,2.95
2023-05-10T16:48:06.012Z,0.20
2023-05-10T16:50:34.552Z,0.45
2023-05-10T16:53:04.198Z,1.23
2023-05-10T16:55:32.739Z,0.70
2023-05-10T16:58:02.810Z,1.67
2023-05-10T17:00:31.118Z,0.30
2023-05-10T17:02:59.720Z,7.95
2023-05-10T17:05:28.213Z,1.45
2023-05-10T17:07:57.002Z,0.15
2023-05-10T17:10:26.564Z,1.48
2023-05-10T17:12:55.093Z,1.67
2023-05-10T17:15:23.313Z,0.45
2023-05-10T17:17:51.929Z,5.45
2023-05-10T17:20:20.835Z,0.30
2023-05-10T17:22:50.550Z,0.60
2023-05-10T17:25:19.449Z,0.35
2023-05-10T17:27:49.325Z,1.30
2023-05-10T17:30:22.481Z,2.03
2023-05-10T17:32:51.189Z,0.68
2023-05-10T17:35:19.765Z,3.28
2023-05-10T17:37:48.361Z,2.90
2023-05-10T17:40:16.808Z,0.10
2023-05-10T17:42:45.445Z,3.75
2023-05-10T17:45:15.256Z,0.30
2023-05-10T17:47:43.751Z,3.17
2023-05-10T17:50:12.381Z,2.38
2023-05-10T17:52:41.295Z,0.63
2023-05-10T17:55:10.978Z,0.75
2023-05-10T17:57:39.680Z,0.40
2023-05-10T18:00:10.452Z,0.35
2023-05-10T18:02:40.136Z,1.65
2023-05-10T18:05:09.415Z,1.13
2023-05-10T18:07:38.040Z,1.08
2023-05-10T18:10:07.899Z,0.30
2023-05-10T18:12:36.382Z,1.65
2023-05-10T18:15:05.372Z,2.13
2023-05-10T18:17:34.979Z,0.45
2023-05-10T18:20:06.047Z,2.25
2023-05-10T18:22:34.739Z,1.23
2023-05-10T18:25:03.745Z,2.45
2023-05-10T18:27:32.841Z,1.02
2023-05-10T18:30:01.051Z,0.52
2023-05-10T18:32:29.849Z,0.57
2023-05-10T18:34:58.877Z,0.98
2023-05-10T18:37:28.504Z,1.95
2023-05-10T18:39:57.650Z,0.40
2023-05-10T18:42:26.618Z,4.68
2023-05-10T18:44:55.304Z,6.85
2023-05-10T18:47:23.841Z,1.08
2023-05-10T18:49:52.684Z,1.63
2023-05-10T18:52:21.211Z,2.83
2023-05-10T18:54:51.036Z,3.38
2023-05-10T18:57:21.117Z,1.38
2023-05-10T18:59:50.188Z,1.98
2023-05-10T19:02:18.908Z,0.50
2023-05-10T19:04:47.289Z,1.38
2023-05-10T19:07:15.842Z,0.47
2023-05-10T19:09:44.362Z,2.55
2023-05-10T19:12:13.920Z,0.45
2023-05-10T19:14:42.409Z,4.85
2023-05-10T19:17:11.827Z,1.30
2023-05-10T19:19:40.452Z,0.68
2023-05-10T19:22:09.014Z,0.68
2023-05-10T19:24:37.489Z,3.03
2023-05-10T19:27:05.713Z,0.90
2023-05-10T19:29:35.397Z,0.45
2023-05-10T19:32:04.428Z,2.45
2023-05-10T19:34:33.015Z,4.30
2023-05-10T19:37:01.207Z,0.52
2023-05-10T19:39:30.829Z,0.75
2023-05-10T19:41:59.664Z,0.82
2023-05-10T19:44:28.257Z,3.15
2023-05-10T19:46:58.262Z,3.47
2023-05-10T19:49:26.988Z,1.13
2023-05-10T19:51:55.496Z,1.88
2023-05-10T19:54:24.080Z,0.38
2023-05-10T19:56:52.622Z,2.00
2023-05-10T19:59:21.137Z,1.08
2023-05-10T20:01:49.656Z,0.30
2023-05-10T20:04:21.566Z,0.40
2023-05-10T20:06:49.837Z,0.20
2023-05-10T20:09:18.326Z,1.13
2023-05-10T20:11:46.941Z,0.60
2023-05-10T20:14:15.419Z,0.38
2023-05-10T20:16:43.944Z,0.43
2023-05-10T20:19:12.584Z,1.65
2023-05-10T20:21:42.726Z,0.13
2023-05-10T20:24:11.353Z,0.95
2023-05-10T20:26:39.894Z,0.40
2023-05-10T20:29:09.343Z,0.35
2023-05-10T20:31:37.889Z,0.30
2023-05-10T20:34:06.508Z,0.50
2023-05-10T20:36:35.018Z,1.27
2023-05-10T20:39:04.624Z,0.45
2023-05-10T20:41:33.141Z,0.28
2023-05-10T20:44:01.652Z,0.30
2023-05-10T20:46:30.337Z,1.10
2023-05-10T20:48:59.508Z,1.90
2023-05-10T20:51:29.901Z,2.03
2023-05-10T20:54:01.676Z,1.58
2023-05-10T20:56:31.347Z,1.23
2023-05-10T20:58:59.843Z,2.83
2023-05-10T21:01:28.481Z,1.85
2023-05-10T21:03:57.011Z,1.05
2023-05-10T21:06:25.278Z,0.60
2023-05-10T21:08:53.507Z,2.30
2023-05-10T21:11:22.396Z,0.63
2023-05-10T21:13:52.459Z,1.25
2023-05-10T21:16:21.056Z,1.17
2023-05-10T21:18:49.728Z,4.47
2023-05-10T21:21:18.291Z,0.43
2023-05-10T21:23:47.733Z,1.08
2023-05-10T21:26:16.938Z,1.85
2023-05-10T21:28:45.907Z,1.27
2023-05-10T21:31:16.028Z,0.20
2023-05-10T21:33:45.644Z,0.32
2023-05-10T21:36:14.254Z,0.38
2023-05-10T21:38:44.391Z,0.30
2023-05-10T21:41:12.791Z,0.82
2023-05-10T21:43:41.513Z,0.30
2023-05-10T21:46:10.284Z,0.75
2023-05-10T21:48:39.899Z,0.52
2023-05-10T21:51:08.414Z,4.32
2023-05-10T21:53:38.915Z,0.55
2023-05-10T21:56:08.227Z,1.67
2023-05-10T21:58:36.739Z,1.02
2023-05-10T22:01:05.396Z,0.32
2023-05-10T22:03:34.025Z,1.08
2023-05-10T22:06:03.699Z,1.30
2023-05-10T22:08:32.251Z,0.50
2023-05-10T22:11:00.769Z,1.45
2023-05-10T22:13:28.935Z,0.30
2023-05-10T22:15:57.496Z,4.47
2023-05-10T22:18:26.068Z,2.63
2023-05-10T22:20:54.658Z,0.82
2023-05-10T22:23:24.259Z,0.45
2023-05-10T22:25:52.797Z,0.60
2023-05-10T22:28:21.321Z,0.43
2023-05-10T22:30:49.927Z,0.40
2023-05-10T22:33:18.670Z,0.40
2023-05-10T22:35:47.271Z,3.00
2023-05-10T22:38:15.850Z,1.02
2023-05-10T22:40:45.534Z,1.05
2023-05-10T22:43:14.036Z,0.50
2023-05-10T22:45:42.235Z,0.43
2023-05-10T22:48:10.676Z,0.60
2023-05-10T22:50:39.252Z,0.40
2023-05-10T22:53:07.768Z,1.30
2023-05-10T22:55:37.123Z,0.30
2023-05-10T22:58:07.007Z,0.65
2023-05-10T23:00:35.611Z,0.75
2023-05-10T23:03:04.555Z,0.65
2023-05-10T23:05:33.309Z,8.07
2023-05-10T23:08:01.938Z,1.00
2023-05-10T23:10:32.173Z,1.73
2023-05-10T23:13:00.387Z,2.58
2023-05-10T23:15:29.949Z,2.03
2023-05-10T23:18:00.920Z,0.80
2023-05-10T23:20:29.896Z,0.40
2023-05-10T23:22:58.426Z,0.95
2023-05-10T23:25:27.227Z,1.00
2023-05-10T23:27:55.449Z,10.80
2023-05-10T23:30:24.007Z,0.70
2023-05-10T23:32:53.576Z,0.98
2023-05-10T23:35:22.179Z,0.57
2023-05-10T23:37:50.688Z,0.90
2023-05-10T23:40:19.545Z,11.65
2023-05-10T23:42:48.537Z,1.33
2023-05-10T23:45:17.217Z,0.57
2023-05-10T23:47:45.842Z,0.70
2023-05-10T23:50:15.817Z,5.10
2023-05-10T23:52:44.394Z,1.25
2023-05-10T23:55:13.268Z,0.50
2023-05-10T23:57:41.797Z,1.67
